Time;durP1;ratioP1;P1;durP2;ratioP2;P2;SDS_P1;SDS_P2;PMS_P1;PMS_P2;Temp;Humidity;BMP_temperature;BMP_pressure;BME280_temperature;BME280_humidity;BME280_pressure;Samples;Min_cycle;Max_cycle;Signal;HPM_P1;HPM_P2
2022/09/25 00:01:05;;;;;;;9.63;3.90;;;;;;;10.79;100.00;95455.88;5028888;28;24420;-70
2022/09/25 00:03:32;;;;;;;12.50;4.10;;;;;;;10.81;100.00;95456.59;5031458;28;24534;-71
2022/09/25 00:06:03;;;;;;;9.13;4.05;;;;;;;10.83;100.00;95448.72;5034520;28;24999;-70
2022/09/25 00:08:30;;;;;;;11.38;3.80;;;;;;;10.85;100.00;95455.44;5031221;28;25020;-70
2022/09/25 00:10:57;;;;;;;4.53;3.65;;;;;;;10.87;100.00;95452.75;5034483;28;24531;-71
2022/09/25 00:13:23;;;;;;;5.72;3.20;;;;;;;10.91;100.00;95446.44;5031542;28;25295;-70
2022/09/25 00:15:52;;;;;;;6.60;4.30;;;;;;;11.21;100.00;95446.06;5028758;28;24435;-70
2022/09/25 00:19:48;;;;;;;5.55;5.03;;;;;;;11.39;100.00;95438.75;5031960;28;24435;-70
2022/09/25 00:21:08;;;;;;;4.90;4.50;;;;;;;11.22;100.00;95441.69;5037835;28;25038;-70
2022/09/25 00:23:35;;;;;;;12.17;4.27;;;;;;;11.05;100.00;95442.84;5032123;28;24563;-70
2022/09/25 00:26:02;;;;;;;5.80;4.73;;;;;;;10.94;100.00;95441.03;5032243;28;25011;-70
2022/09/25 00:28:28;;;;;;;7.60;4.57;;;;;;;11.09;100.00;95433.97;5040211;28;24466;-70
2022/09/25 00:30:55;;;;;;;8.20;4.50;;;;;;;11.09;100.00;95431.38;5035189;28;24467;-70
2022/09/25 00:33:24;;;;;;;7.13;4.82;;;;;;;10.89;100.00;95430.97;5035337;28;24435;-70
2022/09/25 00:35:50;;;;;;;6.63;4.93;;;;;;;10.94;100.00;95429.81;5032401;28;24439;-70
2022/09/25 00:38:17;;;;;;;5.57;4.90;;;;;;;10.86;100.00;95425.19;5032033;28;24435;-70
2022/09/25 00:40:43;;;;;;;6.03;5.43;;;;;;;10.86;100.00;95432.94;5031954;28;24442;-70
2022/09/25 00:43:13;;;;;;;6.63;5.15;;;;;;;10.81;100.00;95430.69;5031655;28;24432;-70
2022/09/25 00:45:40;;;;;;;5.70;5.10;;;;;;;10.80;100.00;95426.44;5032329;28;24788;-70
2022/09/25 00:48:11;;;;;;;5.45;4.95;;;;;;;10.82;100.00;95432.31;5035568;28;24454;-70
2022/09/25 00:50:46;;;;;;;6.05;5.45;;;;;;;10.83;100.00;95421.06;5039070;28;24431;-70
2022/09/25 00:53:18;;;;;;;13.88;5.72;;;;;;;10.85;100.00;95419.16;5035158;28;24784;-69
2022/09/25 00:55:45;;;;;;;10.80;6.10;;;;;;;10.81;100.00;95419.50;5039115;28;24864;-69
2022/09/25 00:58:13;;;;;;;5.82;5.22;;;;;;;10.79;100.00;95414.44;5035792;28;24431;-70
2022/09/25 01:00:40;;;;;;;20.10;6.05;;;;;;;10.62;100.00;95404.41;5038852;28;24431;-70
2022/09/25 01:03:08;;;;;;;13.20;5.05;;;;;;;10.56;100.00;95410.00;5036670;28;24435;-70
2022/09/25 01:05:37;;;;;;;28.48;6.57;;;;;;;10.47;100.00;95410.63;5031800;28;24439;-70
2022/09/25 01:08:09;;;;;;;7.93;5.38;;;;;;;10.49;100.00;95401.81;5034571;28;24456;-70
2022/09/25 01:10:36;;;;;;;8.18;5.43;;;;;;;10.50;100.00;95400.06;5031517;28;24887;-69
2022/09/25 01:13:03;;;;;;;11.10;5.77;;;;;;;10.56;100.00;95408.22;5034281;28;24496;-70
2022/09/25 01:15:37;;;;;;;15.18;5.22;;;;;;;10.61;100.00;95406.16;5031628;28;24435;-70
2022/09/25 01:18:13;;;;;;;6.78;5.45;;;;;;;10.65;100.00;95411.97;5034587;28;24505;-70
2022/09/25 01:21:05;;;;;;;22.25;6.40;;;;;;;10.62;100.00;95419.94;5032087;28;24435;-70
2022/09/25 01:23:56;;;;;;;37.55;5.85;;;;;;;10.60;100.00;95416.59;5024069;28;24436;-70
2022/09/25 01:26:43;;;;;;;13.25;4.75;;;;;;;10.60;100.00;95414.84;5030775;28;24765;-70
2022/09/25 01:29:17;;;;;;;8.70;5.28;;;;;;;10.63;100.00;95409.47;5030564;28;24467;-70
2022/09/25 01:31:52;;;;;;;74.70;6.90;;;;;;;10.59;100.00;95410.59;5030695;28;24774;-70
2022/09/25 01:34:26;;;;;;;64.07;5.57;;;;;;;10.46;100.00;95414.16;5030772;28;24439;-70
2022/09/25 01:36:59;;;;;;;40.92;5.22;;;;;;;10.50;100.00;95419.03;5034042;28;24527;-70
2022/09/25 01:39:31;;;;;;;19.33;5.05;;;;;;;10.52;100.00;95426.66;5035828;28;24439;-70
2022/09/25 01:42:02;;;;;;;60.90;5.88;;;;;;;10.56;100.00;95418.59;5034643;28;24440;-69
2022/09/25 01:44:32;;;;;;;9.15;4.55;;;;;;;10.62;100.00;95412.16;5036613;28;24884;-70
2022/09/25 01:47:05;;;;;;;7.50;4.90;;;;;;;10.65;100.00;95410.19;5034130;28;24534;-70
2022/09/25 01:49:36;;;;;;;28.75;5.35;;;;;;;10.67;100.00;95410.06;5036487;28;24456;-70
2022/09/25 01:52:07;;;;;;;5.88;4.85;;;;;;;10.69;100.00;95408.22;5034430;28;24434;-70
2022/09/25 01:54:38;;;;;;;11.18;5.00;;;;;;;10.71;100.00;95408.09;5036485;28;24438;-71
2022/09/25 01:57:10;;;;;;;7.10;5.00;;;;;;;10.73;100.00;95407.06;5030137;28;24459;-70
2022/09/25 01:59:45;;;;;;;8.48;5.28;;;;;;;10.76;100.00;95406.03;5024320;28;24797;-70
2022/09/25 02:02:18;;;;;;;15.75;5.28;;;;;;;10.82;100.00;95403.84;5034257;28;24432;-70
2022/09/25 02:04:48;;;;;;;11.57;5.85;;;;;;;10.95;100.00;95393.47;5034887;28;24494;-69
2022/09/25 02:07:21;;;;;;;12.02;5.35;;;;;;;10.92;100.00;95392.84;5034825;28;24813;-69
2022/09/25 02:09:51;;;;;;;7.00;5.67;;;;;;;10.83;100.00;95400.34;5034815;28;20872;-70
2022/09/25 02:12:23;;;;;;;6.93;6.22;;;;;;;10.78;100.00;95399.81;5034008;28;24498;-69
2022/09/25 02:14:54;;;;;;;6.47;5.57;;;;;;;10.79;100.00;95400.63;5030930;28;24479;-70
2022/09/25 02:22:53;;;;;;;15.37;5.70;;;;;;;10.82;100.00;95392.66;5031967;28;24423;-70
2022/09/25 02:25:27;;;;;;;14.27;5.60;;;;;;;10.84;100.00;95404.56;5030120;28;24456;-70
2022/09/25 02:27:54;;;;;;;7.35;5.95;;;;;;;10.82;100.00;95400.41;5032925;28;25093;-70
2022/09/25 02:30:21;;;;;;;11.35;5.55;;;;;;;10.83;100.00;95402.91;5037643;28;25107;-69
2022/09/25 02:32:48;;;;;;;7.88;6.15;;;;;;;10.86;100.00;95402.72;5029514;28;24443;-70
2022/09/25 02:35:14;;;;;;;11.27;6.22;;;;;;;10.82;100.00;95396.06;5029887;28;24431;-70
2022/09/25 02:37:41;;;;;;;7.72;5.93;;;;;;;10.79;100.00;95400.63;5035242;28;24439;-70
2022/09/25 02:40:10;;;;;;;17.85;6.25;;;;;;;10.70;100.00;95401.28;5031206;28;24793;-70
2022/09/25 02:42:45;;;;;;;18.17;6.03;;;;;;;10.61;100.00;95394.97;5029112;28;24566;-70
2022/09/25 02:45:23;;;;;;;17.85;5.38;;;;;;;10.58;100.00;95402.97;5029668;28;24995;-70
2022/09/25 02:48:02;;;;;;;13.35;5.45;;;;;;;10.56;100.00;95391.88;5032398;28;24958;-70
2022/09/25 02:50:38;;;;;;;43.75;6.55;;;;;;;10.42;100.00;95398.00;5024735;28;24809;-70
2022/09/25 02:53:10;;;;;;;9.85;5.57;;;;;;;10.51;100.00;95399.94;5036671;28;25029;-70
2022/09/25 02:55:40;;;;;;;18.17;6.28;;;;;;;10.56;100.00;95397.03;5032740;28;24443;-70
2022/09/25 02:58:13;;;;;;;8.90;5.70;;;;;;;10.57;100.00;95403.91;5039156;28;24465;-70
2022/09/25 03:00:43;;;;;;;7.70;6.30;;;;;;;10.61;100.00;95395.81;5032530;28;24442;-70
2022/09/25 03:03:15;;;;;;;18.55;4.00;;;;;;;10.60;100.00;95393.31;5038365;28;24446;-69
2022/09/25 03:05:42;;;;;;;9.43;4.00;;;;;;;10.62;100.00;95396.63;5032672;28;24423;-70
2022/09/25 03:10:53;;;;;;;13.98;4.97;;;;;;;10.48;100.00;95401.91;5028953;28;24439;-70
2022/09/25 03:13:22;;;;;;;15.45;4.22;;;;;;;10.54;100.00;95396.34;5021202;28;24440;-70
2022/09/25 03:15:52;;;;;;;29.02;5.50;;;;;;;10.39;100.00;95395.63;5033851;28;24888;-69
2022/09/25 03:18:20;;;;;;;9.07;4.75;;;;;;;10.48;100.00;95392.38;5029187;28;24439;-70
2022/09/25 03:20:47;;;;;;;7.93;4.68;;;;;;;10.53;100.00;95394.66;5029014;28;24482;-70
2022/09/25 03:23:14;;;;;;;8.02;5.40;;;;;;;10.55;100.00;95392.81;5029056;28;24440;-70
2022/09/25 03:25:40;;;;;;;6.13;5.50;;;;;;;10.56;100.00;95391.88;5029476;28;24510;-70
2022/09/25 03:28:10;;;;;;;8.10;6.10;;;;;;;10.55;100.00;95390.22;5029670;28;24459;-70
2022/09/25 03:30:39;;;;;;;6.88;6.18;;;;;;;10.59;100.00;95395.06;5028886;28;24513;-70
2022/09/25 03:33:06;;;;;;;7.65;6.88;;;;;;;10.60;100.00;95388.94;5028849;28;24447;-70
2022/09/25 03:35:34;;;;;;;7.65;6.95;;;;;;;10.61;100.00;95389.81;5036205;28;24813;-70
2022/09/25 03:38:00;;;;;;;7.40;6.80;;;;;;;10.59;100.00;95399.44;5031388;28;24778;-70
2022/09/25 03:40:27;;;;;;;7.13;6.50;;;;;;;10.60;100.00;95391.53;5028699;28;24463;-70
2022/09/25 03:42:53;;;;;;;7.68;6.60;;;;;;;10.62;100.00;95389.69;5028495;28;24435;-70
2022/09/25 03:45:20;;;;;;;23.25;6.53;;;;;;;10.53;100.00;95389.47;5031261;28;24435;-70
2022/09/25 03:47:46;;;;;;;7.83;5.93;;;;;;;10.57;100.00;95391.78;5033140;28;24432;-70
2022/09/25 03:50:13;;;;;;;8.50;5.50;;;;;;;10.62;100.00;95394.88;5034016;28;24443;-70
2022/09/25 03:52:41;;;;;;;5.40;4.90;;;;;;;10.67;100.00;95389.34;5034196;28;24438;-70
2022/09/25 03:55:10;;;;;;;17.50;5.15;;;;;;;10.66;100.00;95385.94;5032536;28;24424;-70
2022/09/25 03:57:37;;;;;;;9.05;4.88;;;;;;;10.60;100.00;95390.72;5032301;28;24431;-70
2022/09/25 04:00:05;;;;;;;24.40;4.70;;;;;;;10.59;100.00;95384.72;5037724;28;24892;-70
2022/09/25 04:02:31;;;;;;;18.52;4.32;;;;;;;11.12;100.00;95382.75;5038907;28;24467;-70
2022/09/25 04:04:59;;;;;;;24.52;5.63;;;;;;;11.05;100.00;95384.09;5037923;28;24435;-70
2022/09/25 04:07:26;;;;;;;12.95;4.60;;;;;;;10.92;100.00;95380.72;5039561;28;24440;-71
2022/09/25 04:09:54;;;;;;;10.13;4.57;;;;;;;10.67;100.00;95384.19;5037438;28;24510;-70
2022/09/25 04:12:20;;;;;;;9.10;4.97;;;;;;;10.57;100.00;95384.00;5024672;28;24442;-69
2022/09/25 04:14:47;;;;;;;5.40;3.95;;;;;;;10.47;100.00;95382.16;5037772;28;24432;-70
2022/09/25 04:17:13;;;;;;;6.95;4.22;;;;;;;10.46;100.00;95383.09;5034616;28;24434;-70
2022/09/25 04:19:39;;;;;;;4.40;4.10;;;;;;;10.47;100.00;95385.56;5032331;28;25306;-70
2022/09/25 04:22:06;;;;;;;23.73;5.32;;;;;;;10.27;100.00;95394.69;5032147;28;25000;-70
2022/09/25 04:24:48;;;;;;;26.70;4.55;;;;;;;10.08;100.00;95394.22;5037680;28;25006;-70
2022/09/25 04:27:16;;;;;;;19.27;3.40;;;;;;;10.00;100.00;95388.72;5034978;28;24431;-69
2022/09/25 04:29:42;;;;;;;6.30;3.65;;;;;;;9.97;100.00;95394.09;5037706;28;24459;-69
2022/09/25 04:34:53;;;;;;;6.20;3.83;;;;;;;9.96;100.00;95392.44;5038084;28;24500;-70
2022/09/25 04:37:21;;;;;;;3.83;3.53;;;;;;;10.04;100.00;95393.59;5035561;28;24427;-70
2022/09/25 04:39:48;;;;;;;3.75;3.45;;;;;;;10.14;100.00;95391.22;5038041;28;24459;-69
2022/09/25 04:42:16;;;;;;;6.85;3.72;;;;;;;10.11;100.00;95396.59;5031935;28;24439;-70
2022/09/25 04:44:43;;;;;;;4.28;3.88;;;;;;;10.23;100.00;95387.19;5031307;28;24447;-70
2022/09/25 04:47:09;;;;;;;4.80;4.40;;;;;;;10.26;100.00;95387.00;5035293;28;25030;-70
2022/09/25 04:49:37;;;;;;;4.68;4.10;;;;;;;10.28;100.00;95385.16;5041779;23;24487;-70
2022/09/25 04:52:04;;;;;;;6.10;4.47;;;;;;;10.32;100.00;95387.44;5013373;28;24482;-70
2022/09/25 04:54:31;;;;;;;4.10;3.80;;;;;;;10.35;100.00;95382.06;5017244;28;24825;-70
2022/09/25 04:56:57;;;;;;;4.47;3.67;;;;;;;10.37;100.00;95380.19;5017429;28;24440;-70
2022/09/25 04:59:25;;;;;;;4.50;3.65;;;;;;;10.36;100.00;95390.66;5011246;28;24440;-70
2022/09/25 05:01:52;;;;;;;20.25;3.63;;;;;;;10.24;100.00;95389.69;4994706;28;24440;-70
2022/09/25 05:04:19;;;;;;;43.42;3.97;;;;;;;10.08;100.00;95396.81;4998537;28;24429;-70
2022/09/25 05:06:45;;;;;;;22.63;3.22;;;;;;;10.02;100.00;95397.22;4993514;28;24540;-70
2022/09/25 05:09:12;;;;;;;25.85;3.40;;;;;;;10.04;100.00;95400.53;4999475;28;25028;-71
2022/09/25 05:11:38;;;;;;;23.10;3.47;;;;;;;10.06;100.00;95402.09;4993059;28;24441;-70
2022/09/25 05:14:05;;;;;;;10.02;3.53;;;;;;;10.12;100.00;95403.44;5000359;28;24464;-71
2022/09/25 05:16:33;;;;;;;14.40;4.63;;;;;;;10.09;100.00;95407.06;4992287;28;24445;-70
2022/09/25 05:18:59;;;;;;;5.97;4.15;;;;;;;10.11;100.00;95406.97;5001412;28;24443;-71
2022/09/25 05:21:25;;;;;;;15.27;3.40;;;;;;;10.04;100.00;95406.53;4991911;28;24444;-71
2022/09/25 05:23:52;;;;;;;19.73;3.72;;;;;;;10.04;100.00;95411.69;5001713;28;24433;-71
2022/09/25 05:26:18;;;;;;;11.32;3.72;;;;;;;10.05;100.00;95405.63;4990099;28;24441;-71
2022/09/25 05:28:48;;;;;;;18.98;3.70;;;;;;;10.10;100.00;95397.53;4989117;28;25019;-71
2022/09/25 05:31:15;;;;;;;3.70;3.20;;;;;;;10.13;100.00;95410.28;4991421;28;24449;-71
2022/09/25 05:33:43;;;;;;;12.70;3.33;;;;;;;10.05;100.00;95400.44;5000560;28;24494;-71
2022/09/25 05:36:11;;;;;;;32.83;3.70;;;;;;;9.94;100.00;95408.09;4992461;28;24445;-71
2022/09/25 05:38:39;;;;;;;24.77;3.20;;;;;;;9.88;100.00;95405.91;5000107;28;24491;-71
2022/09/25 05:41:07;;;;;;;25.83;4.97;;;;;;;9.82;100.00;95412.28;4993740;28;24437;-71
2022/09/25 05:43:38;;;;;;;11.43;6.60;;;;;;;9.93;100.00;95407.22;4993745;28;24433;-71
2022/09/25 05:46:04;;;;;;;14.32;4.53;;;;;;;9.99;100.00;95402.59;4991596;28;25032;-71
2022/09/25 05:48:31;;;;;;;8.68;3.85;;;;;;;10.03;100.00;95407.47;4998052;28;24443;-71
2022/09/25 05:50:59;;;;;;;4.53;3.42;;;;;;;10.06;100.00;95402.09;4995768;28;24798;-71
2022/09/25 05:53:26;;;;;;;3.70;3.40;;;;;;;10.09;100.00;95404.47;4996473;28;24977;-71
2022/09/25 05:55:54;;;;;;;5.80;3.80;;;;;;;10.13;100.00;95408.53;4996604;28;24528;-71
2022/09/25 05:58:21;;;;;;;7.18;3.53;;;;;;;10.15;100.00;95405.81;4996626;28;24802;-71
2022/09/25 06:00:48;;;;;;;3.58;3.28;;;;;;;10.24;100.00;95406.97;4998185;28;24507;-71
2022/09/25 06:03:15;;;;;;;3.90;3.30;;;;;;;10.27;100.00;95402.47;4993792;28;24981;-71
2022/09/25 06:05:44;;;;;;;3.27;2.97;;;;;;;10.33;100.00;95408.97;4993777;28;24444;-71
2022/09/25 06:08:12;;;;;;;3.10;2.80;;;;;;;10.36;100.00;95409.59;4994880;28;24433;-71
2022/09/25 06:10:39;;;;;;;3.40;3.10;;;;;;;10.30;100.00;95411.75;4988968;28;24551;-71
2022/09/25 06:13:07;;;;;;;4.20;3.90;;;;;;;10.20;100.00;95408.94;4994794;28;24432;-71
2022/09/25 06:15:36;;;;;;;4.45;3.90;;;;;;;10.25;100.00;95406.03;4988675;28;24992;-69
2022/09/25 06:18:04;;;;;;;3.93;3.63;;;;;;;10.29;100.00;95410.94;4994193;28;25156;-71
2022/09/25 06:20:30;;;;;;;3.50;3.20;;;;;;;10.33;100.00;95412.38;4988979;28;24616;-71
2022/09/25 06:22:58;;;;;;;3.42;3.00;;;;;;;10.36;100.00;95408.75;4994392;28;24432;-71
2022/09/25 06:25:29;;;;;;;8.88;3.33;;;;;;;10.34;100.00;95415.78;4989516;28;24440;-71
2022/09/25 06:27:58;;;;;;;5.20;3.50;;;;;;;10.29;100.00;95415.28;4995125;28;24444;-71
2022/09/25 06:30:27;;;;;;;4.32;3.28;;;;;;;10.28;100.00;95419.63;4989035;28;24461;-71
2022/09/25 06:32:57;;;;;;;3.70;3.38;;;;;;;10.26;100.00;95418.91;4994534;28;24433;-71
2022/09/25 06:35:23;;;;;;;7.25;3.50;;;;;;;10.28;100.00;95419.63;4986544;28;24437;-71
2022/09/25 06:37:49;;;;;;;4.05;3.55;;;;;;;10.27;100.00;95422.31;4994414;28;25005;-70
2022/09/25 06:40:16;;;;;;;3.63;3.10;;;;;;;10.30;100.00;95420.34;4989827;28;24437;-70
2022/09/25 06:42:44;;;;;;;4.57;3.30;;;;;;;10.27;100.00;95417.13;4995369;28;24533;-71
2022/09/25 06:45:11;;;;;;;4.03;3.63;;;;;;;10.22;100.00;95424.34;4994432;28;24483;-71
2022/09/25 06:47:38;;;;;;;4.20;3.60;;;;;;;10.26;100.00;95424.06;4995065;28;24799;-71
2022/09/25 06:50:05;;;;;;;5.18;3.55;;;;;;;10.33;100.00;95427.09;4990914;28;24472;-70
2022/09/25 06:52:31;;;;;;;3.90;3.28;;;;;;;10.34;100.00;95423.56;4995368;28;24444;-71
2022/09/25 06:54:59;;;;;;;5.53;5.03;;;;;;;10.41;100.00;95427.41;4991839;28;24428;-71
2022/09/25 06:57:25;;;;;;;5.40;4.90;;;;;;;10.45;100.00;95428.84;4995626;28;24464;-71
2022/09/25 06:59:53;;;;;;;4.93;4.10;;;;;;;10.42;100.00;95418.72;4991788;28;24432;-71
2022/09/25 07:05:04;;;;;;;13.45;11.50;;;;;;;10.41;100.00;95429.97;4992591;28;24526;-71
2022/09/25 07:07:31;;;;;;;14.47;11.10;;;;;;;10.42;100.00;95429.06;4996062;28;24535;-71
2022/09/25 07:09:57;;;;;;;6.72;6.13;;;;;;;10.47;100.00;95427.00;4992375;28;24463;-71
2022/09/25 07:12:23;;;;;;;7.05;6.35;;;;;;;10.47;100.00;95421.81;4996724;28;24436;-71
2022/09/25 07:14:50;;;;;;;7.63;6.55;;;;;;;10.50;100.00;95420.78;4992296;28;24443;-71
2022/09/25 07:17:18;;;;;;;12.23;10.48;;;;;;;10.57;100.00;95422.03;4996518;28;24440;-71
2022/09/25 07:19:44;;;;;;;5.70;5.10;;;;;;;10.55;100.00;95427.28;4991409;28;24436;-71
2022/09/25 07:22:11;;;;;;;8.32;4.00;;;;;;;10.51;100.00;95422.44;4998563;28;24443;-71
2022/09/25 07:24:37;;;;;;;4.43;4.03;;;;;;;10.57;100.00;95419.44;4990815;28;25021;-70
2022/09/25 07:27:04;;;;;;;7.75;4.47;;;;;;;10.56;100.00;95425.53;4998775;28;24436;-71
2022/09/25 07:29:30;;;;;;;4.05;3.63;;;;;;;10.67;100.00;95423.03;4993716;28;24472;-71
2022/09/25 07:31:58;;;;;;;5.25;3.85;;;;;;;10.74;100.00;95419.09;5004991;28;24440;-70
2022/09/25 07:34:26;;;;;;;4.18;3.55;;;;;;;10.61;100.00;95416.53;4994269;28;24439;-69
2022/09/25 07:36:54;;;;;;;3.70;3.40;;;;;;;10.69;100.00;95416.00;4997125;28;24437;-69
2022/09/25 07:39:20;;;;;;;4.68;4.00;;;;;;;10.68;100.00;95418.66;4989505;28;24457;-70
2022/09/25 07:41:47;;;;;;;5.15;4.10;;;;;;;10.66;100.00;95416.19;5005566;28;24455;-71
2022/09/25 07:44:14;;;;;;;6.97;4.90;;;;;;;10.65;100.00;95415.38;5009039;28;24508;-70
2022/09/25 07:46:43;;;;;;;5.35;4.15;;;;;;;10.72;100.00;95418.38;4996650;28;24434;-70
2022/09/25 07:49:09;;;;;;;5.85;3.80;;;;;;;10.75;100.00;95417.31;5000348;28;24440;-70
2022/09/25 07:51:37;;;;;;;5.00;3.80;;;;;;;10.85;100.00;95421.75;4992941;28;24485;-70
2022/09/25 07:54:03;;;;;;;3.80;3.42;;;;;;;10.96;100.00;95417.59;5000656;28;24435;-71
2022/09/25 07:56:30;;;;;;;3.80;3.50;;;;;;;11.01;100.00;95420.69;5009351;28;24436;-70
2022/09/25 07:58:56;;;;;;;3.90;3.55;;;;;;;10.96;100.00;95422.78;5003459;28;24440;-71
2022/09/25 08:01:23;;;;;;;6.50;3.72;;;;;;;11.02;100.00;95422.38;5000121;28;24436;-71
2022/09/25 08:03:49;;;;;;;3.92;3.63;;;;;;;11.13;100.00;95420.66;4997094;28;24437;-71
2022/09/25 08:06:16;;;;;;;4.07;3.67;;;;;;;11.10;100.00;95422.66;4996632;28;24452;-71
2022/09/25 08:08:44;;;;;;;4.35;4.00;;;;;;;11.18;100.00;95420.34;4999266;28;24433;-70
2022/09/25 08:11:12;;;;;;;5.78;4.10;;;;;;;11.25;100.00;95426.75;4992148;28;24449;-71
2022/09/25 08:13:41;;;;;;;4.43;4.03;;;;;;;11.32;100.00;95427.16;4999481;28;24994;-70
2022/09/25 08:16:11;;;;;;;4.70;3.90;;;;;;;11.36;100.00;95429.41;4972977;28;24987;-71
2022/09/25 08:18:40;;;;;;;3.83;3.43;;;;;;;11.38;100.00;95424.94;4982341;28;24811;-71
2022/09/25 08:21:07;;;;;;;3.75;3.45;;;;;;;11.37;100.00;95422.44;4987176;28;24438;-71
2022/09/25 08:23:34;;;;;;;6.28;4.72;;;;;;;11.37;100.00;95427.63;4991581;28;24436;-71
2022/09/25 08:26:02;;;;;;;4.80;4.33;;;;;;;11.50;100.00;95428.44;4978694;28;24442;-71
2022/09/25 08:28:29;;;;;;;4.57;4.10;;;;;;;11.67;100.00;95429.78;4982829;28;24436;-71
2022/09/25 08:30:57;;;;;;;4.45;3.90;;;;;;;11.77;100.00;95422.19;4975790;28;24457;-70
2022/09/25 08:33:24;;;;;;;5.15;4.03;;;;;;;11.85;100.00;95425.06;4970091;28;24437;-70
2022/09/25 08:35:55;;;;;;;4.93;4.43;;;;;;;11.92;100.00;95422.84;4975780;28;24986;-71
2022/09/25 08:38:22;;;;;;;5.13;4.25;;;;;;;11.79;100.00;95425.47;4970597;28;24433;-71
2022/09/25 08:40:53;;;;;;;6.57;4.50;;;;;;;11.72;100.00;95426.88;4975129;28;24442;-71
2022/09/25 08:43:23;;;;;;;4.63;4.20;;;;;;;11.86;100.00;95421.53;4980747;28;24425;-71
2022/09/25 08:51:22;;;;;;;4.85;3.85;;;;;;;11.99;100.00;95411.91;4974414;28;24448;-70
2022/09/25 08:53:49;;;;;;;4.80;4.32;;;;;;;11.95;100.00;95417.44;4979888;28;24791;-71
2022/09/25 08:56:17;;;;;;;5.95;5.05;;;;;;;11.91;100.00;95405.63;4975452;28;24448;-71
2022/09/25 08:58:51;;;;;;;7.40;4.90;;;;;;;11.88;100.00;95406.69;4970539;28;24433;-71
2022/09/25 09:01:21;;;;;;;5.20;4.10;;;;;;;11.83;100.00;95404.44;4976332;28;24994;-71
2022/09/25 09:03:53;;;;;;;4.47;4.07;;;;;;;11.95;100.00;95402.69;4971033;28;25017;-71
2022/09/25 09:06:21;;;;;;;7.97;4.22;;;;;;;12.04;100.00;95401.16;4977385;28;24510;-71
2022/09/25 09:08:54;;;;;;;5.55;4.30;;;;;;;12.07;100.00;95411.34;4971273;28;24433;-68
2022/09/25 09:11:25;;;;;;;4.60;4.18;;;;;;;12.05;100.00;95413.19;4976752;28;24461;-70
2022/09/25 09:14:01;;;;;;;5.07;4.22;;;;;;;12.25;100.00;95419.53;4970705;28;24438;-70
2022/09/25 09:16:35;;;;;;;6.25;4.60;;;;;;;12.31;100.00;95414.69;4977613;28;25061;-70
2022/09/25 09:19:05;;;;;;;6.05;4.32;;;;;;;12.33;100.00;95422.38;4970023;28;24963;-71
2022/09/25 09:21:35;;;;;;;5.72;4.63;;;;;;;12.35;100.00;95418.72;4979109;28;24768;-71
2022/09/25 09:24:07;;;;;;;4.30;3.90;;;;;;;12.40;100.00;95410.56;4970344;28;24465;-71
2022/09/25 09:26:48;;;;;;;5.10;4.55;;;;;;;12.31;100.00;95411.25;4979457;28;24437;-71
2022/09/25 09:29:40;;;;;;;5.47;4.47;;;;;;;12.25;100.00;95409.97;4972104;28;24477;-71
2022/09/25 09:32:22;;;;;;;8.65;4.88;;;;;;;12.20;100.00;95406.03;4974569;28;24450;-71
2022/09/25 09:35:00;;;;;;;5.30;4.50;;;;;;;12.11;100.00;95412.75;4980801;28;24432;-71
2022/09/25 09:37:39;;;;;;;8.50;4.93;;;;;;;12.13;100.00;95402.28;4964591;28;24987;-71
2022/09/25 09:40:20;;;;;;;7.75;4.55;;;;;;;12.07;100.00;95403.53;4980196;28;24539;-70
2022/09/25 09:42:55;;;;;;;6.07;4.57;;;;;;;12.19;100.00;95404.41;4970602;28;25046;-71
2022/09/25 09:45:28;;;;;;;7.55;4.60;;;;;;;12.10;100.00;95408.50;4971926;28;24434;-71
2022/09/25 09:48:01;;;;;;;7.53;5.72;;;;;;;12.21;100.00;95413.72;4975964;28;24819;-70
2022/09/25 09:50:39;;;;;;;6.65;5.80;;;;;;;12.33;100.00;95409.38;4972370;28;24492;-70
2022/09/25 09:53:13;;;;;;;6.72;4.97;;;;;;;12.52;100.00;95414.81;4971524;28;24439;-70
2022/09/25 09:55:44;;;;;;;5.18;4.68;;;;;;;12.44;100.00;95409.38;4978414;28;24446;-70
2022/09/25 09:58:19;;;;;;;8.27;5.47;;;;;;;12.55;100.00;95413.78;4972017;28;24429;-71
2022/09/25 10:00:48;;;;;;;5.93;4.90;;;;;;;12.56;100.00;95411.06;4979297;28;24440;-71
2022/09/25 10:03:20;;;;;;;7.32;5.50;;;;;;;12.64;100.00;95404.44;4974505;28;25110;-71
2022/09/25 10:05:48;;;;;;;7.00;5.32;;;;;;;12.84;100.00;95404.56;4981356;28;24440;-71
2022/09/25 10:08:15;;;;;;;8.30;5.38;;;;;;;12.98;100.00;95408.69;4987129;28;24437;-71
2022/09/25 10:10:44;;;;;;;7.72;6.47;;;;;;;12.83;100.00;95405.53;4982231;28;24465;-70
2022/09/25 10:13:17;;;;;;;6.97;5.38;;;;;;;13.06;100.00;95405.50;4985420;28;24519;-70
2022/09/25 10:15:50;;;;;;;9.33;6.13;;;;;;;12.86;100.00;95414.00;4971456;28;24667;-71
2022/09/25 10:18:18;;;;;;;7.82;5.22;;;;;;;13.05;100.00;95404.69;4966008;28;24536;-70
2022/09/25 10:20:50;;;;;;;14.75;7.03;;;;;;;12.97;100.00;95408.81;4975734;28;24982;-71
2022/09/25 10:23:31;;;;;;;8.02;7.18;;;;;;;13.11;100.00;95405.13;4968894;28;24461;-70
2022/09/25 10:25:58;;;;;;;9.48;7.78;;;;;;;13.10;100.00;95399.13;4972120;28;24436;-71
2022/09/25 10:28:29;;;;;;;11.68;8.75;;;;;;;13.04;100.00;95399.59;4972452;28;24544;-71
2022/09/25 10:31:00;;;;;;;12.23;8.00;;;;;;;12.96;100.00;95402.78;4975076;28;25021;-71
2022/09/25 10:33:29;;;;;;;11.23;8.00;;;;;;;12.80;100.00;95408.34;4969127;28;24437;-71
2022/09/25 10:35:56;;;;;;;8.95;7.43;;;;;;;12.84;100.00;95411.53;4983403;28;24442;-71
2022/09/25 10:38:32;;;;;;;11.82;8.05;;;;;;;12.77;100.00;95411.19;4974163;28;24430;-71
2022/09/25 10:41:06;;;;;;;10.35;7.80;;;;;;;12.86;100.00;95407.03;4984174;28;25013;-71
2022/09/25 10:43:34;;;;;;;9.07;7.50;;;;;;;12.89;100.00;95412.00;4978274;28;24526;-71
2022/09/25 10:46:15;;;;;;;12.32;8.27;;;;;;;12.95;100.00;95410.72;4984987;28;24432;-70
2022/09/25 10:51:27;;;;;;;11.60;8.57;;;;;;;12.73;100.00;95411.53;4964500;28;25013;-71
2022/09/25 10:54:11;;;;;;;10.80;8.77;;;;;;;12.57;100.00;95407.53;4966202;28;24440;-71
2022/09/25 10:56:38;;;;;;;12.77;9.23;;;;;;;12.52;100.00;95409.63;4971599;28;24426;-71
2022/09/25 10:59:13;;;;;;;13.38;10.10;;;;;;;12.44;100.00;95405.97;4977826;28;24791;-71
2022/09/25 11:01:43;;;;;;;14.43;9.93;;;;;;;12.37;100.00;95418.59;4969788;28;24474;-71
2022/09/25 11:04:16;;;;;;;12.15;9.30;;;;;;;12.39;100.00;95428.88;4981078;28;24443;-71
2022/09/25 11:06:46;;;;;;;14.32;10.70;;;;;;;12.31;100.00;95421.63;4978509;28;24429;-71
2022/09/25 11:09:16;;;;;;;13.93;10.07;;;;;;;12.32;100.00;95418.94;4979470;28;24448;-71
2022/09/25 11:11:44;;;;;;;10.57;9.52;;;;;;;12.38;100.00;95422.00;4964438;28;24450;-72
2022/09/25 11:14:21;;;;;;;14.73;10.43;;;;;;;12.44;100.00;95426.75;4982154;28;24440;-71
2022/09/25 11:16:51;;;;;;;14.27;10.53;;;;;;;12.57;100.00;95423.13;4975244;28;24434;-71
2022/09/25 11:19:24;;;;;;;14.45;10.75;;;;;;;12.55;100.00;95419.78;4973478;28;24441;-71
2022/09/25 11:22:00;;;;;;;17.97;10.53;;;;;;;12.73;100.00;95420.16;4976514;28;24509;-71
2022/09/25 11:24:39;;;;;;;13.85;10.98;;;;;;;12.67;100.00;95422.41;4951874;29;24430;-71
2022/09/25 11:27:12;;;;;;;12.93;11.30;;;;;;;12.78;100.00;95414.59;4970383;28;24433;-71
2022/09/25 11:29:48;;;;;;;13.20;11.70;;;;;;;12.90;100.00;95415.41;4959229;28;24450;-71
2022/09/25 11:32:24;;;;;;;16.20;11.60;;;;;;;12.93;100.00;95417.78;4978898;28;24811;-72
2022/09/25 11:35:14;;;;;;;14.52;10.60;;;;;;;12.98;100.00;95411.31;4985030;28;24850;-71
2022/09/25 11:37:50;;;;;;;14.60;10.30;;;;;;;13.13;100.00;95406.69;4955011;28;24434;-71
2022/09/25 11:43:24;;;;;;;13.68;10.32;;;;;;;13.22;100.00;95411.13;4967954;28;24512;-71
2022/09/25 11:45:56;;;;;;;14.73;10.25;;;;;;;13.31;100.00;95413.06;4976293;28;24432;-71
2022/09/25 11:48:31;;;;;;;11.07;9.50;;;;;;;13.42;100.00;95416.56;4979249;28;24513;-71
2022/09/25 11:51:11;;;;;;;11.15;9.30;;;;;;;13.37;100.00;95408.31;4967448;28;24458;-71
2022/09/25 11:53:46;;;;;;;13.20;10.30;;;;;;;13.27;100.00;95405.59;4980129;28;24436;-71
2022/09/25 11:56:25;;;;;;;12.55;10.55;;;;;;;13.11;100.00;95407.72;4985709;28;24451;-71
2022/09/25 11:59:20;;;;;;;12.83;9.77;;;;;;;13.03;100.00;95403.97;4981674;28;24565;-72